Aérodrome :
LOGIN :

S'inscrire | Disclaimer

   EN    FR    IT 

 










Légende :    VFR   VFR Marginal   IFR   IFR Intensif   IFR Très Intensif
Visi : 
Plafond : 
>= 8 km
>= 3000ft
5 à 8 km
1000 à 3000 ft
1500m à 5 km
500 à 1000 ft
800 à 1500m
200 à 500 ft
< 800m
< 200 ft
Symboles :   Orages  Brouillard  Fortes neiges  Fortes précipitations  Vent > 20 kt
SIGMETs :   Divers  Orages  Givrage  Turbulence  Onde Orograph.  Cendres Volcan.






- Altitude de l'aérodrome : 83 ft
- Code IATA : LHR


EGLL - London Heathrow

DERNIER METAR :
  • 301920Z AUTO 23005KT 9999 NCD 16/09 Q1013

METARs EXPIRÉS :
  • 301850Z AUTO 26007KT 9999 //////CB 16/09 Q1012
  • 301820Z AUTO 30004KT 240V350 9999 FEW046/// //////CB 16/09 Q1012
  • 301750Z AUTO 30010KT 270V330 9999 SCT033/// BKN046/// //////CB 16/09 Q1012 NOSIG
  • 301720Z AUTO VRB06KT 9999 BKN032/// BKN042/// //////CB 18/09 Q1012 NOSIG
  • 301650Z AUTO 23011KT 190V300 9999 FEW041/// //////CB 19/08 Q1012 NOSIG

TAF AMD TAF EGLL
Valide du 30 à 18h jusqu'au 02 à 00h UTC


301813Z 3018/0124 27009KT 9999 SCT045
TEMPO 0103/0105 BKN011
PROB30
TEMPO 0109/0117 8000 SHRA



MET'MAP, la Météo Aéronautique d'un coup d'oeil ! - Copyright ORBIFLY Décembre 2007 - Disclaimer

ORBIFLY MET'MAP TEAM :

Programmation & Développement : Alexandra Zaïnal
Sur une idée originale de : Baudouin d'Aumeries
Soutien technique & logistique : Manuel Goepfert
Assistance : Marc-Olivier Méhu




SOURCES & CREDITS :

   NOAA